Time;durP1;ratioP1;P1;durP2;ratioP2;P2;SDS_P1;SDS_P2;PMS_P1;PMS_P2;Temp;Humidity;BMP_temperature;BMP_pressure;BME280_temperature;BME280_humidity;BME280_pressure;Samples;Min_cycle;Max_cycle;Signal;HPM_P1;HPM_P2
2021/05/11 00:01:05;;;;;;;1.30;0.80;;;;;;;;;;10257451;28;20034;-67
2021/05/11 00:06:03;;;;;;;2.95;1.88;;;;;;;;;;10242523;28;20033;-66
2021/05/11 00:11:07;;;;;;;3.60;2.00;;;;;;;;;;10247694;28;20038;-66
2021/05/11 00:16:04;;;;;;;6.72;2.88;;;;;;;;;;10231284;28;20038;-66
2021/05/11 00:21:02;;;;;;;2.00;1.63;;;;;;;;;;10220796;28;20038;-67
2021/05/11 00:26:00;;;;;;;5.65;2.20;;;;;;;;;;10245786;28;20494;-67
2021/05/11 00:30:57;;;;;;;4.30;2.73;;;;;;;;;;10259385;28;20054;-67
2021/05/11 00:35:55;;;;;;;3.73;1.90;;;;;;;;;;10255873;28;20064;-67
2021/05/11 00:40:53;;;;;;;2.93;1.47;;;;;;;;;;10254311;28;20055;-67
2021/05/11 00:45:50;;;;;;;4.83;1.67;;;;;;;;;;10246549;28;20464;-67
2021/05/11 00:50:48;;;;;;;3.60;1.60;;;;;;;;;;10238798;28;20037;-67
2021/05/11 00:55:45;;;;;;;1.30;1.23;;;;;;;;;;10260193;28;20052;-67
2021/05/11 01:00:43;;;;;;;6.80;3.65;;;;;;;;;;10249187;28;20125;-67
2021/05/11 01:05:40;;;;;;;3.73;2.57;;;;;;;;;;10267921;28;20042;-67
2021/05/11 01:10:38;;;;;;;6.83;3.87;;;;;;;;;;10243235;28;20363;-67
2021/05/11 01:15:38;;;;;;;6.77;4.03;;;;;;;;;;10271574;28;20095;-67
2021/05/11 01:20:41;;;;;;;4.50;3.97;;;;;;;;;;10262635;28;20444;-66
2021/05/11 01:25:40;;;;;;;8.13;4.93;;;;;;;;;;10252794;28;20053;-66
2021/05/11 01:31:00;;;;;;;5.70;3.85;;;;;;;;;;10247833;28;20497;-66
2021/05/11 02:23:09;;;;;;;5.53;2.95;;;;;;;;;;10286270;28;20084;-66
2021/05/11 02:28:13;;;;;;;4.70;3.90;;;;;;;;;;10254258;28;20087;-65
2021/05/11 02:33:10;;;;;;;9.35;5.63;;;;;;;;;;10228321;28;20537;-65
2021/05/11 02:38:08;;;;;;;4.40;2.63;;;;;;;;;;10236332;28;20389;-66
2021/05/11 02:43:10;;;;;;;8.53;4.57;;;;;;;;;;10258912;28;20644;-66
2021/05/11 02:48:10;;;;;;;2.25;1.52;;;;;;;;;;10237902;28;20029;-66
2021/05/11 02:53:08;;;;;;;2.35;2.05;;;;;;;;;;10247806;28;20117;-66
2021/05/11 02:58:06;;;;;;;2.67;1.50;;;;;;;;;;10244678;28;20026;-66
2021/05/11 03:03:03;;;;;;;3.23;1.60;;;;;;;;;;10258716;28;20032;-65
2021/05/11 03:08:01;;;;;;;3.27;2.30;;;;;;;;;;10257683;28;20392;-66
2021/05/11 03:12:59;;;;;;;4.10;2.93;;;;;;;;;;10240569;28;20284;-66
2021/05/11 03:17:56;;;;;;;6.00;3.77;;;;;;;;;;10235570;28;20025;-65
2021/05/11 03:22:53;;;;;;;6.10;2.90;;;;;;;;;;10255891;28;20026;-66
2021/05/11 03:27:51;;;;;;;2.77;2.17;;;;;;;;;;10259029;28;20088;-66
2021/05/11 03:32:48;;;;;;;7.57;4.13;;;;;;;;;;10241551;28;20034;-66
2021/05/11 03:37:46;;;;;;;5.93;3.87;;;;;;;;;;10239418;28;20034;-66
2021/05/11 03:42:52;;;;;;;6.57;4.70;;;;;;;;;;10236374;28;20033;-66
2021/05/11 03:47:52;;;;;;;6.82;3.45;;;;;;;;;;10240634;28;20417;-66
2021/05/11 03:52:56;;;;;;;6.05;3.88;;;;;;;;;;10195325;28;20034;-64
2021/05/11 03:57:54;;;;;;;5.40;3.58;;;;;;;;;;10215024;28;20125;-66
2021/05/11 04:02:51;;;;;;;3.03;2.23;;;;;;;;;;10211674;28;20025;-66
2021/05/11 04:07:52;;;;;;;4.40;2.47;;;;;;;;;;10230975;28;20133;-66
2021/05/11 04:17:59;;;;;;;3.50;1.90;;;;;;;;;;10239707;28;20268;-67
2021/05/11 04:22:57;;;;;;;3.07;1.87;;;;;;;;;;10232374;28;20243;-67
2021/05/11 04:27:55;;;;;;;1.60;1.47;;;;;;;;;;10237013;28;20025;-66
2021/05/11 04:32:52;;;;;;;2.10;1.87;;;;;;;;;;10245163;28;20053;-66
2021/05/11 04:37:49;;;;;;;2.60;1.77;;;;;;;;;;10240490;28;20739;-66
2021/05/11 04:42:53;;;;;;;2.10;1.70;;;;;;;;;;10222126;28;20497;-66
2021/05/11 04:47:51;;;;;;;2.33;1.67;;;;;;;;;;10182894;28;20817;-66
2021/05/11 04:52:49;;;;;;;1.57;1.17;;;;;;;;;;10238226;28;20030;-66
2021/05/11 04:57:46;;;;;;;1.80;1.40;;;;;;;;;;10214256;28;20030;-66
2021/05/11 05:02:48;;;;;;;2.30;1.20;;;;;;;;;;10221966;28;20034;-65
2021/05/11 05:07:45;;;;;;;6.70;1.85;;;;;;;;;;10205261;28;20486;-67
2021/05/11 05:12:46;;;;;;;1.70;1.30;;;;;;;;;;10186686;28;20038;-67
2021/05/11 05:17:44;;;;;;;1.60;1.17;;;;;;;;;;10215940;28;20041;-66
2021/05/11 05:22:42;;;;;;;3.97;1.50;;;;;;;;;;10192203;28;20045;-66
2021/05/11 05:27:48;;;;;;;0.90;0.90;;;;;;;;;;10202865;28;20045;-65
2021/05/11 05:32:46;;;;;;;2.20;1.33;;;;;;;;;;10243188;28;20168;-66
2021/05/11 05:37:43;;;;;;;1.17;1.07;;;;;;;;;;10241879;28;20648;-65
2021/05/11 05:42:40;;;;;;;1.23;0.60;;;;;;;;;;10253118;28;20125;-66
2021/05/11 05:47:50;;;;;;;2.50;1.27;;;;;;;;;;10258957;28;20518;-67
2021/05/11 05:52:53;;;;;;;1.08;0.70;;;;;;;;;;10238471;28;20101;-66
2021/05/11 05:57:51;;;;;;;1.30;0.88;;;;;;;;;;10254751;28;20045;-66
2021/05/11 06:02:51;;;;;;;1.80;0.80;;;;;;;;;;10237415;28;20054;-66
2021/05/11 06:07:50;;;;;;;0.65;0.55;;;;;;;;;;10221639;28;20118;-66
2021/05/11 06:12:55;;;;;;;2.13;1.10;;;;;;;;;;10249677;28;20034;-66
2021/05/11 06:17:53;;;;;;;0.50;0.50;;;;;;;;;;10179838;28;20074;-65
2021/05/11 06:22:53;;;;;;;0.63;0.63;;;;;;;;;;10209956;28;20592;-64
2021/05/11 06:27:58;;;;;;;0.75;0.75;;;;;;;;;;10208970;28;20046;-66
2021/05/11 06:32:56;;;;;;;0.88;0.77;;;;;;;;;;10237105;28;20100;-65
2021/05/11 06:37:57;;;;;;;1.27;0.60;;;;;;;;;;10240931;28;20034;-65
2021/05/11 06:42:56;;;;;;;0.40;0.40;;;;;;;;;;10202690;28;20060;-66
2021/05/11 06:53:33;;;;;;;0.85;0.40;;;;;;;;;;10260637;28;20030;-66
2021/05/11 06:58:24;;;;;;;1.17;0.38;;;;;;;;;;10236585;28;20065;-65
2021/05/11 07:03:21;;;;;;;1.87;0.60;;;;;;;;;;10229507;28;20037;-66
2021/05/11 07:08:31;;;;;;;0.40;0.30;;;;;;;;;;10221609;28;20033;-66
2021/05/11 07:13:29;;;;;;;0.80;0.70;;;;;;;;;;10236103;28;20526;-65
2021/05/11 07:18:28;;;;;;;1.13;0.60;;;;;;;;;;10216360;28;20069;-65
2021/05/11 07:23:26;;;;;;;0.50;0.50;;;;;;;;;;10217390;28;20068;-65
2021/05/11 07:33:40;;;;;;;0.57;0.57;;;;;;;;;;10243267;28;20049;-67
2021/05/11 07:38:38;;;;;;;1.75;0.63;;;;;;;;;;10222361;28;20060;-66
2021/05/11 07:43:38;;;;;;;1.87;0.73;;;;;;;;;;10239687;28;20045;-66
2021/05/11 07:48:52;;;;;;;0.88;0.65;;;;;;;;;;10223026;28;20460;-67
2021/05/11 08:14:58;;;;;;;0.95;0.60;;;;;;;;;;10225855;28;20049;-65
2021/05/11 08:30:09;;;;;;;1.42;0.52;;;;;;;;;;10244651;28;20113;-65
2021/05/11 08:35:07;;;;;;;0.20;0.20;;;;;;;;;;10223253;28;20046;-65
2021/05/11 08:40:05;;;;;;;0.57;0.57;;;;;;;;;;10228916;28;20278;-66
2021/05/11 08:45:04;;;;;;;0.50;0.50;;;;;;;;;;10207775;28;20072;-65
2021/05/11 08:50:03;;;;;;;1.40;0.60;;;;;;;;;;10214723;28;20034;-66
2021/05/11 09:32:00;;;;;;;0.40;0.40;;;;;;;;;;10234829;28;20045;-67
2021/05/11 10:50:31;;;;;;;0.28;0.20;;;;;;;;;;10236349;28;20030;-67
2021/05/11 10:55:31;;;;;;;0.40;0.40;;;;;;;;;;10248344;28;20333;-66
2021/05/11 11:00:41;;;;;;;1.67;0.93;;;;;;;;;;10225725;28;20489;-68
2021/05/11 11:05:46;;;;;;;0.80;0.73;;;;;;;;;;10208445;28;20094;-66
2021/05/11 11:10:43;;;;;;;0.65;0.25;;;;;;;;;;10243974;28;20547;-67
2021/05/11 11:15:44;;;;;;;0.47;0.47;;;;;;;;;;10234308;28;20460;-67
2021/05/11 11:20:45;;;;;;;2.40;0.88;;;;;;;;;;10255470;28;20501;-66
2021/05/11 11:25:55;;;;;;;1.60;1.50;;;;;;;;;;10224572;28;20049;-66
2021/05/11 11:30:53;;;;;;;0.43;0.40;;;;;;;;;;10252499;28;20065;-66
2021/05/11 11:35:50;;;;;;;0.87;0.50;;;;;;;;;;10238039;28;20045;-68
2021/05/11 11:40:55;;;;;;;0.20;0.20;;;;;;;;;;10234550;28;20037;-66
2021/05/11 11:45:54;;;;;;;0.93;0.38;;;;;;;;;;10272662;28;20053;-65
2021/05/11 11:50:55;;;;;;;2.37;0.90;;;;;;;;;;10228743;28;20048;-66
2021/05/11 11:56:10;;;;;;;3.22;1.58;;;;;;;;;;10216731;28;20029;-65
2021/05/11 12:01:12;;;;;;;0.30;0.30;;;;;;;;;;10230652;28;20477;-65
2021/05/11 12:06:15;;;;;;;1.10;0.68;;;;;;;;;;10243759;28;20525;-67
2021/05/11 12:11:12;;;;;;;1.23;0.40;;;;;;;;;;10247073;28;20018;-65
2021/05/11 12:16:16;;;;;;;0.17;0.17;;;;;;;;;;10212528;28;20612;-66
2021/05/11 12:21:14;;;;;;;0.43;0.38;;;;;;;;;;10251808;28;20026;-67
2021/05/11 12:26:11;;;;;;;0.47;0.40;;;;;;;;;;10271029;28;20100;-67
2021/05/11 12:31:10;;;;;;;0.30;0.30;;;;;;;;;;10246416;28;20120;-68
2021/05/11 12:36:15;;;;;;;0.13;0.13;;;;;;;;;;10230375;28;20038;-68
2021/05/11 12:41:32;;;;;;;0.38;0.30;;;;;;;;;;10270697;28;20019;-67
2021/05/11 12:46:31;;;;;;;6.80;1.08;;;;;;;;;;10270671;28;20038;-67
2021/05/11 12:51:30;;;;;;;407.40;133.00;;;;;;;;;;10264555;28;20040;-67
2021/05/11 13:22:39;;;;;;;82.43;36.95;;;;;;;;;;10218842;28;20056;-67
2021/05/11 13:27:58;;;;;;;68.97;30.60;;;;;;;;;;10243110;28;20389;-67
2021/05/11 15:00:44;;;;;;;10.65;2.22;;;;;;;;;;10230075;28;20030;-71
2021/05/11 15:05:42;;;;;;;6.63;2.38;;;;;;;;;;10242475;28;20491;-69
2021/05/11 15:10:40;;;;;;;10.60;2.00;;;;;;;;;;10239092;28;20021;-68
2021/05/11 15:15:39;;;;;;;7.33;2.53;;;;;;;;;;10235998;28;20022;-67
2021/05/11 15:20:36;;;;;;;5.78;2.03;;;;;;;;;;10241921;28;20046;-66
2021/05/11 15:25:34;;;;;;;2.90;1.53;;;;;;;;;;10244774;28;20050;-69
2021/05/11 15:30:33;;;;;;;6.27;1.43;;;;;;;;;;10236041;28;20045;-68
2021/05/11 15:35:33;;;;;;;2.08;1.27;;;;;;;;;;10223276;28;20054;-68
2021/05/11 15:40:32;;;;;;;2.78;1.30;;;;;;;;;;10219638;28;20451;-68
2021/05/11 15:45:30;;;;;;;2.42;1.08;;;;;;;;;;10246642;28;20049;-68
2021/05/11 15:50:35;;;;;;;1.93;1.03;;;;;;;;;;10248880;28;20117;-71
2021/05/11 15:55:38;;;;;;;1.17;0.55;;;;;;;;;;10229329;28;20107;-68
2021/05/11 16:00:36;;;;;;;1.58;0.73;;;;;;;;;;10242477;28;20033;-69
2021/05/11 16:05:35;;;;;;;0.52;0.30;;;;;;;;;;10248414;28;20520;-71
2021/05/11 16:10:34;;;;;;;0.85;0.73;;;;;;;;;;10250964;28;20546;-69
2021/05/11 16:15:32;;;;;;;1.70;0.88;;;;;;;;;;10239295;28;20038;-69
2021/05/11 16:20:29;;;;;;;3.08;1.20;;;;;;;;;;10254359;28;20030;-67
2021/05/11 16:25:27;;;;;;;1.37;0.80;;;;;;;;;;10247128;28;20034;-69
2021/05/11 16:30:25;;;;;;;1.90;0.80;;;;;;;;;;10247064;28;20118;-69
2021/05/11 16:35:22;;;;;;;3.00;0.80;;;;;;;;;;10253321;28;20356;-69
2021/05/11 16:40:19;;;;;;;1.17;0.53;;;;;;;;;;10252347;28;20060;-69
2021/05/11 16:45:17;;;;;;;0.63;0.50;;;;;;;;;;10235074;28;20072;-68
2021/05/11 16:50:14;;;;;;;2.87;1.03;;;;;;;;;;10249072;28;20112;-67
2021/05/11 16:55:13;;;;;;;0.53;0.50;;;;;;;;;;10254035;28;20498;-68
2021/05/11 17:00:11;;;;;;;1.25;0.50;;;;;;;;;;10245566;28;20505;-68
2021/05/11 17:05:10;;;;;;;1.75;0.70;;;;;;;;;;10232770;28;20029;-68
2021/05/11 17:10:08;;;;;;;0.65;0.40;;;;;;;;;;10234419;28;20060;-68
2021/05/11 17:15:06;;;;;;;0.77;0.50;;;;;;;;;;10249870;28;20052;-67
2021/05/11 17:20:04;;;;;;;2.63;1.20;;;;;;;;;;10253670;28;20111;-69
2021/05/11 17:25:02;;;;;;;0.65;0.50;;;;;;;;;;10249244;28;20026;-69
2021/05/11 17:30:02;;;;;;;1.92;0.50;;;;;;;;;;10249305;28;20030;-69
2021/05/11 17:35:00;;;;;;;0.43;0.43;;;;;;;;;;10236834;28;20537;-68
2021/05/11 17:39:57;;;;;;;0.87;0.77;;;;;;;;;;10187021;28;20042;-67
2021/05/11 17:44:55;;;;;;;0.40;0.40;;;;;;;;;;10226232;28;20037;-66
2021/05/11 17:49:52;;;;;;;0.80;0.40;;;;;;;;;;10228965;28;20616;-67
2021/05/11 17:54:50;;;;;;;1.23;0.60;;;;;;;;;;10246229;28;20302;-69
2021/05/11 17:59:47;;;;;;;2.63;0.80;;;;;;;;;;10240187;28;20087;-68
2021/05/11 18:04:45;;;;;;;0.67;0.50;;;;;;;;;;10247209;28;20092;-70
2021/05/11 18:09:43;;;;;;;0.57;0.43;;;;;;;;;;10238323;28;20419;-69
2021/05/11 18:14:40;;;;;;;0.60;0.53;;;;;;;;;;10202934;28;20033;-68
2021/05/11 18:19:38;;;;;;;1.50;0.77;;;;;;;;;;10224539;28;20045;-69
2021/05/11 18:24:36;;;;;;;0.40;0.40;;;;;;;;;;10221895;28;20036;-68
2021/05/11 18:29:33;;;;;;;3.15;0.50;;;;;;;;;;10226187;28;20034;-69
2021/05/11 18:34:31;;;;;;;0.70;0.70;;;;;;;;;;10239332;28;20041;-70
2021/05/11 18:39:28;;;;;;;0.57;0.57;;;;;;;;;;10241379;28;20037;-68
2021/05/11 18:44:26;;;;;;;3.47;0.70;;;;;;;;;;10208694;28;20033;-70
2021/05/11 18:49:24;;;;;;;1.05;0.50;;;;;;;;;;10230383;28;21063;-68
2021/05/11 18:54:21;;;;;;;1.57;0.70;;;;;;;;;;10238427;28;20038;-68
2021/05/11 18:59:19;;;;;;;0.63;0.63;;;;;;;;;;10224208;28;20399;-68
2021/05/11 19:04:19;;;;;;;1.08;0.43;;;;;;;;;;10237227;28;20030;-70
2021/05/11 19:09:16;;;;;;;1.15;0.28;;;;;;;;;;10238199;28;20422;-69
2021/05/11 19:14:15;;;;;;;1.90;0.80;;;;;;;;;;10245120;28;20046;-70
2021/05/11 19:19:13;;;;;;;3.38;0.93;;;;;;;;;;10226687;28;20128;-69
2021/05/11 19:24:10;;;;;;;5.47;1.17;;;;;;;;;;10236572;28;20121;-68
2021/05/11 19:29:08;;;;;;;1.67;0.70;;;;;;;;;;10231867;28;20038;-69
2021/05/11 19:34:09;;;;;;;0.60;0.60;;;;;;;;;;10235292;28;20038;-69
2021/05/11 19:39:08;;;;;;;1.10;0.70;;;;;;;;;;10233794;28;20038;-68
2021/05/11 19:44:07;;;;;;;0.95;0.82;;;;;;;;;;10229828;28;20034;-69
2021/05/11 19:49:04;;;;;;;1.23;0.60;;;;;;;;;;10222810;28;20072;-69
2021/05/11 19:54:02;;;;;;;1.00;0.77;;;;;;;;;;10225694;28;20045;-67
2021/05/11 19:59:00;;;;;;;1.65;0.80;;;;;;;;;;10235539;28;20038;-68
2021/05/11 20:03:57;;;;;;;2.17;0.87;;;;;;;;;;10238612;28;20030;-66
2021/05/11 20:08:54;;;;;;;1.40;0.50;;;;;;;;;;10231233;28;20097;-67
2021/05/11 20:13:55;;;;;;;0.80;0.50;;;;;;;;;;10232447;28;20145;-68
2021/05/11 20:18:52;;;;;;;3.40;0.70;;;;;;;;;;10232283;28;20034;-68
2021/05/11 20:23:50;;;;;;;0.97;0.53;;;;;;;;;;10228096;28;20035;-68
2021/05/11 20:28:52;;;;;;;4.13;1.10;;;;;;;;;;10235695;28;20117;-71
2021/05/11 20:33:50;;;;;;;1.55;0.63;;;;;;;;;;10225071;28;20041;-69
2021/05/11 20:38:47;;;;;;;1.92;0.82;;;;;;;;;;10239519;28;20054;-68
2021/05/11 20:43:45;;;;;;;3.43;1.93;;;;;;;;;;10234894;28;20030;-67
2021/05/11 20:48:42;;;;;;;4.03;1.90;;;;;;;;;;10213735;28;20125;-69
2021/05/11 20:53:40;;;;;;;7.50;2.70;;;;;;;;;;10220087;28;20064;-67
2021/05/11 20:58:38;;;;;;;3.37;2.50;;;;;;;;;;10244899;28;20033;-66
2021/05/11 21:03:35;;;;;;;5.30;2.80;;;;;;;;;;10222251;28;20030;-69
2021/05/11 21:08:33;;;;;;;6.27;3.17;;;;;;;;;;10251888;28;20065;-69
2021/05/11 21:13:31;;;;;;;4.97;2.90;;;;;;;;;;10245146;28;20458;-70
2021/05/11 21:18:28;;;;;;;6.50;2.97;;;;;;;;;;10224328;28;20050;-68
2021/05/11 21:23:27;;;;;;;6.37;2.80;;;;;;;;;;10209299;28;20038;-68
2021/05/11 21:28:24;;;;;;;4.85;2.65;;;;;;;;;;10235927;28;20041;-69
2021/05/11 21:33:22;;;;;;;4.37;1.93;;;;;;;;;;10223733;28;20048;-66
2021/05/11 21:38:19;;;;;;;4.43;1.77;;;;;;;;;;10235917;28;20034;-66
2021/05/11 21:43:17;;;;;;;1.03;0.50;;;;;;;;;;10245908;28;20064;-68
2021/05/11 21:48:16;;;;;;;1.03;0.80;;;;;;;;;;10246962;28;20049;-67
2021/05/11 21:53:13;;;;;;;0.82;0.68;;;;;;;;;;10235786;28;20050;-68
2021/05/11 21:58:15;;;;;;;2.83;0.37;;;;;;;;;;10238362;28;20064;-66
2021/05/11 22:03:13;;;;;;;0.88;0.40;;;;;;;;;;10240792;28;20361;-65
2021/05/11 22:08:11;;;;;;;1.58;0.52;;;;;;;;;;10233337;28;20050;-66
2021/05/11 22:13:12;;;;;;;3.73;1.27;;;;;;;;;;10247442;28;20069;-69
2021/05/11 22:18:10;;;;;;;1.85;1.30;;;;;;;;;;10239574;28;20392;-66
2021/05/11 22:23:07;;;;;;;2.47;1.33;;;;;;;;;;10246374;28;20034;-67
2021/05/11 22:28:05;;;;;;;1.37;1.00;;;;;;;;;;10241893;28;20038;-66
2021/05/11 22:33:03;;;;;;;1.97;1.37;;;;;;;;;;10248776;28;20049;-66
2021/05/11 22:38:00;;;;;;;0.50;0.50;;;;;;;;;;10230566;28;20045;-66
2021/05/11 22:42:59;;;;;;;1.70;0.70;;;;;;;;;;10209052;28;20597;-68
2021/05/11 22:48:04;;;;;;;4.30;1.63;;;;;;;;;;10237739;28;20414;-65
2021/05/11 22:53:03;;;;;;;5.78;1.65;;;;;;;;;;10232537;28;20030;-66
2021/05/11 22:58:01;;;;;;;6.03;2.30;;;;;;;;;;10232800;28;20041;-68
2021/05/11 23:02:59;;;;;;;3.40;1.47;;;;;;;;;;10218589;28;20034;-65
2021/05/11 23:07:56;;;;;;;3.80;1.90;;;;;;;;;;10230828;28;20041;-66
2021/05/11 23:12:55;;;;;;;4.70;2.27;;;;;;;;;;10254271;28;20034;-66
2021/05/11 23:17:54;;;;;;;;;;;;;;;;;;10242760;28;20038;-65
2021/05/11 23:22:52;;;;;;;6.60;2.33;;;;;;;;;;10238871;28;20012;-66
2021/05/11 23:27:49;;;;;;;13.47;3.73;;;;;;;;;;10218294;28;20133;-66
2021/05/11 23:32:47;;;;;;;7.73;4.17;;;;;;;;;;10241129;28;20041;-66
2021/05/11 23:37:45;;;;;;;8.50;4.53;;;;;;;;;;10237071;28;20038;-66
2021/05/11 23:42:43;;;;;;;10.27;3.60;;;;;;;;;;10239401;28;20095;-65
2021/05/11 23:47:40;;;;;;;;;;;;;;;;;;10243958;28;20069;-66
2021/05/11 23:52:38;;;;;;;8.30;3.25;;;;;;;;;;10213690;28;19968;-65
2021/05/11 23:57:36;;;;;;;8.53;3.70;;;;;;;;;;10232228;28;20083;-67
